sensor_id;sensor_type;location;lat;lon;timestamp;P1;durP1;ratioP1;P2;durP2;ratioP2
36815;SDS011;71982;52.294;6.760;2023-08-08T00:01:33;10.63;;;3.72;;
36815;SDS011;71982;52.294;6.760;2023-08-08T00:04:00;7.10;;;3.63;;
36815;SDS011;71982;52.294;6.760;2023-08-08T00:06:27;10.07;;;4.30;;
36815;SDS011;71982;52.294;6.760;2023-08-08T00:08:55;9.35;;;4.25;;
36815;SDS011;71982;52.294;6.760;2023-08-08T00:11:22;9.25;;;4.57;;
36815;SDS011;71982;52.294;6.760;2023-08-08T00:13:49;10.55;;;4.35;;
36815;SDS011;71982;52.294;6.760;2023-08-08T00:16:15;11.10;;;5.65;;
36815;SDS011;71982;52.294;6.760;2023-08-08T00:18:42;9.60;;;4.88;;
36815;SDS011;71982;52.294;6.760;2023-08-08T00:21:09;14.18;;;4.90;;
36815;SDS011;71982;52.294;6.760;2023-08-08T00:23:36;9.63;;;5.35;;
36815;SDS011;71982;52.294;6.760;2023-08-08T00:26:04;11.13;;;6.10;;
36815;SDS011;71982;52.294;6.760;2023-08-08T00:28:30;12.13;;;5.50;;
36815;SDS011;71982;52.294;6.760;2023-08-08T00:30:57;10.18;;;5.55;;
36815;SDS011;71982;52.294;6.760;2023-08-08T00:33:24;9.63;;;5.88;;
36815;SDS011;71982;52.294;6.760;2023-08-08T00:35:51;11.27;;;6.03;;
36815;SDS011;71982;52.294;6.760;2023-08-08T00:38:17;12.30;;;6.10;;
36815;SDS011;71982;52.294;6.760;2023-08-08T00:40:44;8.73;;;5.25;;
36815;SDS011;71982;52.294;6.760;2023-08-08T00:43:12;11.40;;;5.45;;
36815;SDS011;71982;52.294;6.760;2023-08-08T00:45:39;10.43;;;5.63;;
36815;SDS011;71982;52.294;6.760;2023-08-08T00:48:08;10.82;;;5.25;;
36815;SDS011;71982;52.294;6.760;2023-08-08T00:50:36;10.90;;;5.72;;
36815;SDS011;71982;52.294;6.760;2023-08-08T00:53:03;12.18;;;5.47;;
36815;SDS011;71982;52.294;6.760;2023-08-08T00:55:30;8.55;;;4.30;;
36815;SDS011;71982;52.294;6.760;2023-08-08T00:57:58;10.18;;;4.40;;
36815;SDS011;71982;52.294;6.760;2023-08-08T01:00:26;9.40;;;4.40;;
36815;SDS011;71982;52.294;6.760;2023-08-08T01:02:53;7.88;;;3.80;;
36815;SDS011;71982;52.294;6.760;2023-08-08T01:05:20;10.25;;;4.18;;
36815;SDS011;71982;52.294;6.760;2023-08-08T01:07:47;8.25;;;4.20;;
36815;SDS011;71982;52.294;6.760;2023-08-08T01:10:22;13.38;;;4.45;;
36815;SDS011;71982;52.294;6.760;2023-08-08T01:12:53;10.23;;;4.50;;
36815;SDS011;71982;52.294;6.760;2023-08-08T01:15:24;9.18;;;3.70;;
36815;SDS011;71982;52.294;6.760;2023-08-08T01:17:54;8.55;;;4.47;;
36815;SDS011;71982;52.294;6.760;2023-08-08T01:20:21;10.77;;;3.50;;
36815;SDS011;71982;52.294;6.760;2023-08-08T01:22:50;14.60;;;4.20;;
36815;SDS011;71982;52.294;6.760;2023-08-08T01:25:25;10.52;;;3.67;;
36815;SDS011;71982;52.294;6.760;2023-08-08T01:27:52;10.02;;;4.60;;
36815;SDS011;71982;52.294;6.760;2023-08-08T01:30:19;10.00;;;4.80;;
36815;SDS011;71982;52.294;6.760;2023-08-08T01:32:46;10.23;;;4.53;;
36815;SDS011;71982;52.294;6.760;2023-08-08T01:35:13;10.20;;;4.55;;
36815;SDS011;71982;52.294;6.760;2023-08-08T01:37:41;11.05;;;4.65;;
36815;SDS011;71982;52.294;6.760;2023-08-08T01:42:43;11.52;;;5.57;;
36815;SDS011;71982;52.294;6.760;2023-08-08T01:45:11;11.30;;;4.88;;
36815;SDS011;71982;52.294;6.760;2023-08-08T01:47:38;13.43;;;5.63;;
36815;SDS011;71982;52.294;6.760;2023-08-08T01:50:05;19.65;;;5.95;;
36815;SDS011;71982;52.294;6.760;2023-08-08T01:52:33;14.57;;;4.95;;
36815;SDS011;71982;52.294;6.760;2023-08-08T01:55:01;11.70;;;5.05;;
36815;SDS011;71982;52.294;6.760;2023-08-08T01:57:28;12.35;;;5.00;;
36815;SDS011;71982;52.294;6.760;2023-08-08T01:59:56;10.07;;;5.22;;
36815;SDS011;71982;52.294;6.760;2023-08-08T02:02:23;11.05;;;5.43;;
36815;SDS011;71982;52.294;6.760;2023-08-08T02:04:49;16.42;;;5.78;;
36815;SDS011;71982;52.294;6.760;2023-08-08T02:07:16;14.88;;;6.10;;
36815;SDS011;71982;52.294;6.760;2023-08-08T02:09:43;12.07;;;5.72;;
36815;SDS011;71982;52.294;6.760;2023-08-08T02:12:11;12.52;;;5.55;;
36815;SDS011;71982;52.294;6.760;2023-08-08T02:14:37;13.30;;;5.85;;
36815;SDS011;71982;52.294;6.760;2023-08-08T02:17:05;14.43;;;6.15;;
36815;SDS011;71982;52.294;6.760;2023-08-08T02:19:32;11.82;;;6.78;;
36815;SDS011;71982;52.294;6.760;2023-08-08T02:21:59;20.73;;;7.10;;
36815;SDS011;71982;52.294;6.760;2023-08-08T02:24:26;19.00;;;7.28;;
36815;SDS011;71982;52.294;6.760;2023-08-08T02:26:52;12.00;;;6.82;;
36815;SDS011;71982;52.294;6.760;2023-08-08T02:29:19;13.48;;;6.88;;
36815;SDS011;71982;52.294;6.760;2023-08-08T02:31:46;17.20;;;6.43;;
36815;SDS011;71982;52.294;6.760;2023-08-08T02:34:14;15.32;;;6.72;;
36815;SDS011;71982;52.294;6.760;2023-08-08T02:36:41;14.63;;;6.82;;
36815;SDS011;71982;52.294;6.760;2023-08-08T02:39:07;17.92;;;7.35;;
36815;SDS011;71982;52.294;6.760;2023-08-08T02:41:34;16.10;;;7.38;;
36815;SDS011;71982;52.294;6.760;2023-08-08T02:44:01;15.20;;;7.20;;
36815;SDS011;71982;52.294;6.760;2023-08-08T02:46:28;16.98;;;7.28;;
36815;SDS011;71982;52.294;6.760;2023-08-08T02:48:55;19.05;;;8.40;;
36815;SDS011;71982;52.294;6.760;2023-08-08T02:51:23;17.55;;;7.60;;
36815;SDS011;71982;52.294;6.760;2023-08-08T02:53:49;17.35;;;7.53;;
36815;SDS011;71982;52.294;6.760;2023-08-08T02:56:16;14.82;;;8.10;;
36815;SDS011;71982;52.294;6.760;2023-08-08T02:58:43;16.80;;;7.30;;
36815;SDS011;71982;52.294;6.760;2023-08-08T03:01:10;27.20;;;7.97;;
36815;SDS011;71982;52.294;6.760;2023-08-08T03:03:38;18.55;;;8.32;;
36815;SDS011;71982;52.294;6.760;2023-08-08T03:06:05;17.35;;;8.60;;
36815;SDS011;71982;52.294;6.760;2023-08-08T03:08:33;15.55;;;7.15;;
36815;SDS011;71982;52.294;6.760;2023-08-08T03:11:00;13.98;;;7.18;;
36815;SDS011;71982;52.294;6.760;2023-08-08T03:13:27;14.90;;;8.40;;
36815;SDS011;71982;52.294;6.760;2023-08-08T03:15:53;19.70;;;8.25;;
36815;SDS011;71982;52.294;6.760;2023-08-08T03:18:21;14.10;;;8.05;;
36815;SDS011;71982;52.294;6.760;2023-08-08T03:20:50;15.52;;;8.70;;
36815;SDS011;71982;52.294;6.760;2023-08-08T03:23:17;16.30;;;8.60;;
36815;SDS011;71982;52.294;6.760;2023-08-08T03:25:45;17.95;;;8.32;;
36815;SDS011;71982;52.294;6.760;2023-08-08T03:28:12;15.88;;;7.40;;
36815;SDS011;71982;52.294;6.760;2023-08-08T03:30:39;15.00;;;7.85;;
36815;SDS011;71982;52.294;6.760;2023-08-08T03:33:06;22.50;;;8.77;;
36815;SDS011;71982;52.294;6.760;2023-08-08T03:35:32;17.73;;;8.15;;
36815;SDS011;71982;52.294;6.760;2023-08-08T03:37:59;16.52;;;8.30;;
36815;SDS011;71982;52.294;6.760;2023-08-08T03:40:26;16.95;;;8.32;;
36815;SDS011;71982;52.294;6.760;2023-08-08T03:42:54;16.52;;;7.80;;
36815;SDS011;71982;52.294;6.760;2023-08-08T03:45:21;15.18;;;8.45;;
36815;SDS011;71982;52.294;6.760;2023-08-08T03:47:47;18.85;;;9.18;;
36815;SDS011;71982;52.294;6.760;2023-08-08T21:35:25;8.10;;;5.10;;
36815;SDS011;71982;52.294;6.760;2023-08-08T21:37:55;10.90;;;5.05;;
36815;SDS011;71982;52.294;6.760;2023-08-08T21:40:39;10.00;;;4.90;;
36815;SDS011;71982;52.294;6.760;2023-08-08T21:43:09;10.70;;;5.60;;
36815;SDS011;71982;52.294;6.760;2023-08-08T21:45:36;9.30;;;5.10;;
36815;SDS011;71982;52.294;6.760;2023-08-08T21:48:18;8.15;;;5.13;;
36815;SDS011;71982;52.294;6.760;2023-08-08T21:54:16;8.13;;;4.90;;
36815;SDS011;71982;52.294;6.760;2023-08-08T21:57:28;10.68;;;5.68;;
36815;SDS011;71982;52.294;6.760;2023-08-08T22:06:19;9.55;;;5.70;;
36815;SDS011;71982;52.294;6.760;2023-08-08T22:08:55;14.02;;;6.03;;
36815;SDS011;71982;52.294;6.760;2023-08-08T22:11:25;9.70;;;5.65;;
36815;SDS011;71982;52.294;6.760;2023-08-08T22:14:04;10.48;;;6.55;;
36815;SDS011;71982;52.294;6.760;2023-08-08T22:19:21;11.43;;;6.47;;
36815;SDS011;71982;52.294;6.760;2023-08-08T22:21:52;9.93;;;7.00;;
36815;SDS011;71982;52.294;6.760;2023-08-08T22:24:20;14.57;;;7.18;;
36815;SDS011;71982;52.294;6.760;2023-08-08T22:27:04;11.07;;;7.18;;
36815;SDS011;71982;52.294;6.760;2023-08-08T22:29:31;12.85;;;6.80;;
36815;SDS011;71982;52.294;6.760;2023-08-08T22:31:58;12.38;;;7.75;;
36815;SDS011;71982;52.294;6.760;2023-08-08T22:34:25;12.88;;;7.00;;
36815;SDS011;71982;52.294;6.760;2023-08-08T22:36:53;11.57;;;7.63;;
36815;SDS011;71982;52.294;6.760;2023-08-08T22:39:23;12.88;;;8.23;;
36815;SDS011;71982;52.294;6.760;2023-08-08T22:42:03;12.43;;;8.02;;
36815;SDS011;71982;52.294;6.760;2023-08-08T22:44:34;14.30;;;7.63;;
36815;SDS011;71982;52.294;6.760;2023-08-08T22:50:01;14.48;;;7.45;;
36815;SDS011;71982;52.294;6.760;2023-08-08T22:52:45;11.77;;;7.22;;
36815;SDS011;71982;52.294;6.760;2023-08-08T22:55:15;13.82;;;7.78;;
36815;SDS011;71982;52.294;6.760;2023-08-08T23:00:53;11.75;;;6.85;;
36815;SDS011;71982;52.294;6.760;2023-08-08T23:06:05;12.80;;;7.85;;
36815;SDS011;71982;52.294;6.760;2023-08-08T23:08:34;13.15;;;7.45;;
36815;SDS011;71982;52.294;6.760;2023-08-08T23:11:02;11.23;;;7.75;;
36815;SDS011;71982;52.294;6.760;2023-08-08T23:13:44;11.07;;;7.03;;
36815;SDS011;71982;52.294;6.760;2023-08-08T23:16:19;10.50;;;7.20;;
36815;SDS011;71982;52.294;6.760;2023-08-08T23:18:47;10.50;;;6.90;;
36815;SDS011;71982;52.294;6.760;2023-08-08T23:21:14;12.77;;;7.80;;
36815;SDS011;71982;52.294;6.760;2023-08-08T23:23:41;12.57;;;7.20;;
36815;SDS011;71982;52.294;6.760;2023-08-08T23:26:09;15.73;;;7.53;;
36815;SDS011;71982;52.294;6.760;2023-08-08T23:28:42;10.32;;;6.68;;
36815;SDS011;71982;52.294;6.760;2023-08-08T23:31:10;11.38;;;7.00;;
36815;SDS011;71982;52.294;6.760;2023-08-08T23:33:48;12.88;;;7.75;;
36815;SDS011;71982;52.294;6.760;2023-08-08T23:36:22;17.02;;;7.95;;
36815;SDS011;71982;52.294;6.760;2023-08-08T23:38:53;16.63;;;8.20;;
36815;SDS011;71982;52.294;6.760;2023-08-08T23:41:20;14.20;;;8.23;;
36815;SDS011;71982;52.294;6.760;2023-08-08T23:43:49;12.55;;;7.45;;
36815;SDS011;71982;52.294;6.760;2023-08-08T23:46:38;13.13;;;7.80;;
36815;SDS011;71982;52.294;6.760;2023-08-08T23:49:09;11.10;;;7.57;;
36815;SDS011;71982;52.294;6.760;2023-08-08T23:51:37;13.32;;;8.23;;
36815;SDS011;71982;52.294;6.760;2023-08-08T23:54:08;14.43;;;8.57;;
36815;SDS011;71982;52.294;6.760;2023-08-08T23:56:40;17.70;;;10.05;;
36815;SDS011;71982;52.294;6.760;2023-08-08T23:59:14;13.15;;;9.02;;
